Time;durP1;ratioP1;P1;durP2;ratioP2;P2;SDS_P1;SDS_P2;PMS_P1;PMS_P2;Temp;Humidity;BMP_temperature;BMP_pressure;BME280_temperature;BME280_humidity;BME280_pressure;Samples;Min_cycle;Max_cycle;Signal;HPM_P1;HPM_P2
2020/12/06 00:00:53;;;;;;;41.45;23.85;;;;;;;0.61;71.93;100899.88;1786419;77;21170;-37
2020/12/06 00:03:22;;;;;;;40.33;23.73;;;;;;;0.48;72.02;100907.80;1792687;77;21144;-37
2020/12/06 00:05:51;;;;;;;37.03;21.35;;;;;;;0.32;72.56;100913.53;1754961;79;21094;-37
2020/12/06 00:08:19;;;;;;;40.58;22.22;;;;;;;0.23;72.66;100908.39;1749478;79;21183;-37
2020/12/06 00:10:49;;;;;;;;;;;;;;;0.15;72.85;100909.35;1751539;80;21036;-37
2020/12/06 00:13:17;;;;;;;33.92;18.37;;;;;;;0.09;72.96;100911.19;1745766;79;20220;-37
2020/12/06 00:15:46;;;;;;;32.08;18.32;;;;;;;0.00;73.12;100911.37;1733960;80;21147;-37
2020/12/06 00:18:14;;;;;;;33.55;18.32;;;;;;;-0.02;72.90;100911.61;1799503;79;21570;-37
2020/12/06 00:20:42;;;;;;;30.97;17.85;;;;;;;-0.05;72.79;100911.32;1796567;79;21111;-37
2020/12/06 00:23:11;;;;;;;31.12;17.02;;;;;;;-0.06;72.73;100917.17;1800789;77;21338;-37
2020/12/06 00:25:39;;;;;;;29.30;17.00;;;;;;;-0.04;72.39;100920.38;1801328;77;21480;-37
2020/12/06 00:28:08;;;;;;;28.15;16.27;;;;;;;-0.12;72.42;100924.03;1787747;77;20976;-37
2020/12/06 00:30:36;;;;;;;33.02;16.30;;;;;;;-0.13;72.11;100925.08;1797022;79;21147;-36
2020/12/06 00:33:06;;;;;;;29.70;15.73;;;;;;;-0.17;72.02;100920.78;1804478;77;21688;-35
2020/12/06 00:35:35;;;;;;;30.47;16.30;;;;;;;-0.19;71.83;100918.08;1797858;77;22351;-35
2020/12/06 00:38:03;;;;;;;29.67;16.27;;;;;;;-0.56;71.82;100868.13;1785890;79;21131;-36
2020/12/06 00:40:32;;;;;;;27.98;14.85;;;;;;;-0.26;71.59;100917.48;1806842;79;21134;-36
2020/12/06 00:43:00;;;;;;;27.37;15.48;;;;;;;-0.26;71.64;100918.81;1735044;80;21181;-36
2020/12/06 00:45:28;;;;;;;29.57;15.43;;;;;;;-0.28;71.50;100911.58;1787868;79;21190;-35
2020/12/06 00:47:57;;;;;;;28.95;16.48;;;;;;;-0.33;71.44;100908.86;1785095;80;21327;-36
2020/12/06 00:50:25;;;;;;;29.35;16.52;;;;;;;-0.33;71.36;100904.86;1787499;78;21170;-36
2020/12/06 00:52:54;;;;;;;27.87;15.32;;;;;;;-0.41;71.14;100905.31;1787661;79;21577;-36
2020/12/06 00:55:24;;;;;;;31.27;15.83;;;;;;;-0.45;71.20;100903.68;1768185;80;21024;-36
2020/12/06 00:57:53;;;;;;;29.55;15.13;;;;;;;-0.47;71.27;100906.58;1790684;78;21475;-36
2020/12/06 01:00:22;;;;;;;33.00;15.08;;;;;;;-0.47;71.00;100909.25;1795705;78;21940;-36
2020/12/06 01:02:50;;;;;;;30.55;14.83;;;;;;;-0.49;70.83;100906.05;1769328;78;21150;-36
2020/12/06 01:05:19;;;;;;;30.20;14.90;;;;;;;-0.52;70.86;100909.19;1782231;78;21194;-36
2020/12/06 01:07:48;;;;;;;26.45;14.13;;;;;;;-0.55;70.68;100902.23;1795426;79;21179;-37
2020/12/06 01:10:17;;;;;;;26.87;14.18;;;;;;;-0.59;70.65;100910.44;1717696;82;21161;-36
2020/12/06 01:12:45;;;;;;;25.85;14.18;;;;;;;-0.62;70.51;100911.72;1788124;78;23445;-37
2020/12/06 01:15:14;;;;;;;28.12;14.60;;;;;;;-0.67;70.28;100917.51;1797012;79;21147;-36
2020/12/06 01:17:42;;;;;;;28.20;15.03;;;;;;;-0.70;70.37;100918.83;1796603;78;21001;-36
2020/12/06 01:20:10;;;;;;;28.02;14.18;;;;;;;-0.71;70.37;100915.88;1789226;78;21150;-37
2020/12/06 01:22:38;;;;;;;25.30;15.05;;;;;;;-0.74;70.38;100913.72;1786543;78;21127;-36
2020/12/06 01:25:07;;;;;;;26.02;13.95;;;;;;;-0.75;70.28;100912.62;1782702;78;21716;-36
2020/12/06 01:27:36;;;;;;;24.90;14.00;;;;;;;-0.79;70.33;100908.84;1796176;78;21024;-35
2020/12/06 01:30:05;;;;;;;26.65;14.23;;;;;;;-0.84;70.27;100918.91;1794459;78;21002;-35
2020/12/06 01:32:34;;;;;;;25.30;13.85;;;;;;;-0.92;70.49;100911.34;1717337;82;26824;-36
2020/12/06 01:35:03;;;;;;;23.32;13.60;;;;;;;-0.93;70.45;100917.20;1793196;78;21126;-35
2020/12/06 01:37:32;;;;;;;28.55;14.98;;;;;;;-0.96;70.54;100915.53;1797210;79;22252;-36
2020/12/06 01:40:00;;;;;;;26.57;14.50;;;;;;;-0.99;70.50;100909.38;1787769;78;21143;-36
2020/12/06 01:42:28;;;;;;;23.87;13.80;;;;;;;-1.04;70.63;100910.11;1716957;82;21186;-36
2020/12/06 01:44:59;;;;;;;25.37;14.43;;;;;;;-1.03;70.41;100914.39;1774936;79;21182;-36
2020/12/06 01:47:27;;;;;;;27.05;13.68;;;;;;;-1.10;70.34;100920.92;1789728;78;21206;-36
2020/12/06 01:49:56;;;;;;;31.17;14.83;;;;;;;-1.09;70.28;100919.35;1794474;78;21374;-37
2020/12/06 01:52:29;;;;;;;23.67;12.95;;;;;;;-1.05;69.97;100919.66;1763167;79;22180;-36
2020/12/06 01:54:57;;;;;;;23.57;14.00;;;;;;;-1.11;69.58;100932.08;1781749;78;21621;-37
2020/12/06 01:57:25;;;;;;;25.55;13.22;;;;;;;-1.09;69.54;100930.00;1790323;78;21158;-36
2020/12/06 01:59:54;;;;;;;25.72;13.45;;;;;;;-1.08;69.29;100929.48;1793429;79;21139;-36
2020/12/06 02:02:22;;;;;;;25.77;13.20;;;;;;;-1.13;69.23;100930.20;1794790;78;21167;-36
2020/12/06 02:04:53;;;;;;;21.57;12.40;;;;;;;-1.20;69.15;100932.22;1785507;79;21187;-36
2020/12/06 02:07:21;;;;;;;26.30;13.53;;;;;;;-1.23;69.17;100924.73;1774742;78;21175;-37
2020/12/06 02:09:49;;;;;;;24.70;12.50;;;;;;;-1.29;69.13;100928.87;1791977;78;21166;-36
2020/12/06 02:12:18;;;;;;;25.32;13.13;;;;;;;-1.35;69.15;100934.64;1705365;82;21166;-36
2020/12/06 02:14:47;;;;;;;28.77;13.25;;;;;;;-1.35;69.19;100927.47;1685143;84;21322;-36
2020/12/06 02:17:15;;;;;;;26.02;13.38;;;;;;;-1.34;69.16;100925.62;1707328;82;21396;-36
2020/12/06 02:19:44;;;;;;;21.05;13.32;;;;;;;-1.37;69.07;100928.77;1789752;78;21277;-36
2020/12/06 02:22:13;;;;;;;24.37;12.53;;;;;;;-1.41;69.17;100923.14;1791603;78;21155;-36
2020/12/06 02:24:41;;;;;;;22.03;12.93;;;;;;;-1.39;68.94;100931.67;1796545;78;21131;-36
2020/12/06 02:27:09;;;;;;;27.80;12.63;;;;;;;-1.45;68.54;100936.61;1795205;78;21405;-36
2020/12/06 02:29:38;;;;;;;23.62;12.68;;;;;;;-1.56;68.79;100921.56;1796653;78;21158;-36
2020/12/06 02:32:06;;;;;;;23.55;12.65;;;;;;;-1.52;68.70;100931.19;1789736;78;21155;-36
2020/12/06 02:34:35;;;;;;;24.40;12.73;;;;;;;-1.55;68.95;100936.45;1767202;78;21107;-36
2020/12/06 02:37:03;;;;;;;22.45;12.43;;;;;;;-1.56;68.64;100936.19;1774588;78;21135;-36
2020/12/06 02:39:31;;;;;;;25.32;12.85;;;;;;;-1.62;68.82;100937.14;1778753;79;21370;-36
2020/12/06 02:42:00;;;;;;;20.82;12.20;;;;;;;-1.65;68.63;100929.66;1794112;78;21577;-36
2020/12/06 02:44:29;;;;;;;24.45;11.45;;;;;;;-1.73;68.59;100938.53;1796295;79;21140;-36
2020/12/06 02:46:59;;;;;;;24.67;12.75;;;;;;;-1.74;68.58;100932.95;1717793;82;21128;-36
2020/12/06 02:49:28;;;;;;;28.77;12.53;;;;;;;-1.74;68.36;100932.41;1786564;79;21600;-36
2020/12/06 02:51:56;;;;;;;19.27;10.98;;;;;;;-1.72;68.28;100942.28;1782577;79;22229;-36
2020/12/06 02:54:25;;;;;;;22.90;12.13;;;;;;;-1.70;68.24;100941.53;1784076;79;21106;-36
2020/12/06 02:56:53;;;;;;;24.57;12.03;;;;;;;-1.71;68.03;100938.59;1782025;79;21143;-36
2020/12/06 02:59:21;;;;;;;22.40;11.73;;;;;;;-1.74;68.05;100945.69;1782776;79;21406;-36
2020/12/06 03:01:50;;;;;;;22.87;11.85;;;;;;;-2.17;68.00;100887.80;1781638;79;21150;-36
2020/12/06 03:04:18;;;;;;;23.32;11.63;;;;;;;-1.77;67.72;100950.17;1788044;79;22218;-36
2020/12/06 03:06:46;;;;;;;20.77;11.48;;;;;;;-1.78;67.64;100956.53;1785818;79;21166;-36
2020/12/06 03:09:15;;;;;;;22.90;11.73;;;;;;;-1.84;67.89;100958.28;1785381;79;21073;-36
2020/12/06 03:11:43;;;;;;;21.40;12.82;;;;;;;-1.87;68.05;100961.95;1752645;80;21165;-36
2020/12/06 03:14:12;;;;;;;21.93;11.18;;;;;;;-1.89;67.89;100964.06;1782240;79;21585;-36
2020/12/06 03:16:41;;;;;;;19.95;12.13;;;;;;;-1.96;68.06;100966.84;1789251;79;23676;-36
2020/12/06 03:19:09;;;;;;;22.05;12.20;;;;;;;-1.98;68.00;100966.27;1786239;79;21578;-36
2020/12/06 03:21:37;;;;;;;24.12;12.60;;;;;;;-2.01;68.09;100972.58;1785653;79;21150;-36
2020/12/06 03:24:06;;;;;;;20.32;11.50;;;;;;;-2.05;68.08;100969.60;1797779;79;21152;-36
2020/12/06 03:26:34;;;;;;;27.55;11.95;;;;;;;-2.01;67.89;100973.39;1786274;79;21148;-36
2020/12/06 03:29:02;;;;;;;21.82;12.23;;;;;;;-2.04;67.76;100965.09;1782766;79;21378;-35
2020/12/06 03:31:31;;;;;;;21.02;11.65;;;;;;;-2.08;67.75;100970.05;1782387;79;21111;-35
2020/12/06 03:33:59;;;;;;;21.73;12.55;;;;;;;-2.10;67.75;100966.03;1800258;79;21281;-35
2020/12/06 03:36:28;;;;;;;23.42;11.12;;;;;;;-2.22;67.95;100958.91;1783882;79;21178;-35
2020/12/06 03:38:56;;;;;;;23.18;12.75;;;;;;;-2.27;68.16;100961.46;1782688;79;21628;-35
2020/12/06 03:41:25;;;;;;;20.75;11.60;;;;;;;-2.31;68.41;100962.17;1813555;79;21306;-35
2020/12/06 03:43:53;;;;;;;22.13;11.90;;;;;;;-2.28;68.40;100963.86;1765992;80;21118;-36
2020/12/06 03:46:21;;;;;;;20.70;12.13;;;;;;;-2.26;68.21;100965.73;1750841;80;20987;-39
2020/12/06 03:48:49;;;;;;;24.27;12.03;;;;;;;-2.28;68.16;100970.50;1749976;81;21297;-36
2020/12/06 03:51:18;;;;;;;24.07;11.40;;;;;;;-2.29;68.05;100969.39;1726961;80;21182;-36
2020/12/06 03:53:46;;;;;;;17.50;11.25;;;;;;;-2.35;68.19;100971.66;1747185;82;21286;-36
2020/12/06 03:56:15;;;;;;;22.80;12.00;;;;;;;-2.37;68.07;100969.22;1739228;80;21126;-36
2020/12/06 03:58:45;;;;;;;21.73;11.78;;;;;;;-2.42;68.09;100969.12;1728166;80;21602;-36
2020/12/06 04:01:13;;;;;;;22.32;11.68;;;;;;;-2.49;68.33;100975.09;1730047;82;21135;-36
2020/12/06 04:03:42;;;;;;;23.62;12.23;;;;;;;-2.50;68.31;100968.16;1730333;80;21166;-36
2020/12/06 04:06:10;;;;;;;20.88;11.38;;;;;;;-2.56;68.42;100973.07;1729654;80;21400;-36
2020/12/06 04:08:38;;;;;;;19.95;11.43;;;;;;;-2.59;68.35;100968.24;1708785;81;21185;-36
2020/12/06 04:11:07;;;;;;;21.48;11.53;;;;;;;-2.64;68.21;100968.13;1736361;81;21158;-36
2020/12/06 04:13:35;;;;;;;21.70;11.38;;;;;;;-2.86;68.57;100956.52;1760980;79;21132;-36
2020/12/06 04:16:03;;;;;;;21.45;10.85;;;;;;;-2.82;68.68;100975.72;1734684;79;21156;-36
2020/12/06 04:18:32;;;;;;;19.50;10.95;;;;;;;-2.85;68.64;100965.55;1748759;79;21208;-36
2020/12/06 04:21:00;;;;;;;23.40;11.35;;;;;;;-2.95;68.82;100974.61;1713573;81;21166;-36
2020/12/06 04:23:29;;;;;;;23.60;11.28;;;;;;;-2.97;68.95;100970.58;1765615;79;21100;-36
2020/12/06 04:25:57;;;;;;;21.55;12.33;;;;;;;-2.96;68.95;100969.55;1766554;79;21170;-36
2020/12/06 04:28:26;;;;;;;19.02;10.53;;;;;;;-3.07;69.20;100968.51;1737082;81;21146;-36
2020/12/06 04:30:54;;;;;;;21.68;9.83;;;;;;;-3.11;69.21;100965.52;1710399;81;21370;-36
2020/12/06 04:33:22;;;;;;;22.98;11.83;;;;;;;-3.12;69.28;100967.06;1737978;82;21184;-36
2020/12/06 04:35:51;;;;;;;20.77;10.80;;;;;;;-3.20;69.38;100969.55;1749046;79;21021;-36
2020/12/06 04:38:19;;;;;;;20.37;11.05;;;;;;;-3.20;69.39;100956.29;1737978;82;21433;-36
2020/12/06 04:40:48;;;;;;;20.12;11.33;;;;;;;-3.23;69.41;100968.66;1766306;79;21147;-36
2020/12/06 04:43:17;;;;;;;19.50;11.00;;;;;;;-3.30;69.50;100962.67;1713780;82;22233;-36
2020/12/06 04:45:47;;;;;;;21.30;11.28;;;;;;;-3.32;69.60;100964.73;1739893;79;21112;-36
2020/12/06 04:48:41;;;;;;;;;;;;;;;-3.35;69.47;100965.20;1734317;79;21147;-36
2020/12/06 04:51:09;;;;;;;21.20;11.18;;;;;;;-3.39;69.62;100972.00;1762391;79;20199;-36
2020/12/06 04:53:44;;;;;;;22.07;11.40;;;;;;;-3.51;69.94;100966.67;1711045;81;21147;-38
2020/12/06 04:56:12;;;;;;;20.57;11.28;;;;;;;-3.48;69.93;100969.88;1749640;80;21284;-37
2020/12/06 04:58:40;;;;;;;20.77;11.10;;;;;;;-3.49;69.77;100961.66;1735504;79;21182;-36
2020/12/06 05:01:09;;;;;;;20.23;10.95;;;;;;;-3.50;69.77;100964.83;1754331;79;21716;-36
2020/12/06 05:03:38;;;;;;;18.12;10.13;;;;;;;-3.51;69.72;100975.14;1781630;78;21021;-36
2020/12/06 05:06:06;;;;;;;19.35;9.75;;;;;;;-3.55;69.68;100964.70;1773756;78;21040;-36
2020/12/06 05:08:35;;;;;;;17.60;10.25;;;;;;;-3.57;69.78;100976.03;1787628;78;21197;-36
2020/12/06 05:11:03;;;;;;;27.50;10.43;;;;;;;-3.62;69.87;100972.74;1772616;81;21577;-37
2020/12/06 05:13:31;;;;;;;18.35;9.85;;;;;;;-3.59;69.88;100971.50;1790678;77;21618;-37
2020/12/06 05:16:50;;;;;;;21.87;11.08;;;;;;;-3.62;69.92;100974.06;1762960;79;22573;-36
2020/12/06 05:19:18;;;;;;;19.30;10.35;;;;;;;-3.69;69.97;100983.16;1733271;82;21315;-36
2020/12/06 05:21:48;;;;;;;23.40;10.70;;;;;;;-3.72;70.03;100983.08;1708116;82;21884;-36
2020/12/06 05:24:16;;;;;;;22.90;11.53;;;;;;;-3.74;70.06;100993.12;1719870;82;21007;-36
2020/12/06 05:26:45;;;;;;;19.15;10.25;;;;;;;-3.67;69.88;100989.03;1719633;82;21004;-36
2020/12/06 05:29:14;;;;;;;21.33;10.15;;;;;;;-3.69;69.88;101001.72;1719763;82;20985;-36
2020/12/06 05:31:42;;;;;;;18.52;11.05;;;;;;;-3.66;69.71;101004.72;1712230;82;21348;-36
2020/12/06 05:34:10;;;;;;;22.25;10.25;;;;;;;-3.64;69.71;101007.15;1712211;80;21368;-36
2020/12/06 05:36:42;;;;;;;15.65;9.88;;;;;;;-3.71;69.63;101007.23;1716470;82;21025;-36
2020/12/06 05:39:12;;;;;;;19.73;9.35;;;;;;;-3.69;69.55;101007.02;1714227;82;21039;-36
2020/12/06 05:41:42;;;;;;;17.70;9.75;;;;;;;-3.64;69.27;101011.13;1718644;83;21147;-36
2020/12/06 05:44:11;;;;;;;16.17;9.05;;;;;;;-3.70;69.26;101015.48;1719069;82;21122;-36
2020/12/06 05:46:41;;;;;;;17.12;9.88;;;;;;;-3.68;69.26;101017.38;1729673;80;21032;-36
2020/12/06 05:49:09;;;;;;;19.10;10.08;;;;;;;-3.62;69.11;101018.31;1719205;82;21106;-36
2020/12/06 05:51:39;;;;;;;16.77;9.98;;;;;;;-3.65;68.99;101025.41;1717283;82;21162;-36
2020/12/06 05:54:07;;;;;;;20.10;9.90;;;;;;;-3.61;68.88;101022.08;1703270;84;21311;-36
2020/12/06 05:56:36;;;;;;;16.73;9.23;;;;;;;-3.61;68.72;101026.56;1714503;82;21652;-36
2020/12/06 05:59:04;;;;;;;16.02;9.28;;;;;;;-3.66;68.91;101022.45;1719673;82;21430;-36
2020/12/06 06:01:33;;;;;;;19.40;9.68;;;;;;;-4.10;68.85;100955.59;1731941;82;22245;-36
2020/12/06 06:04:01;;;;;;;17.37;9.55;;;;;;;-3.64;68.81;101013.27;1718736;82;21016;-36
2020/12/06 06:06:39;;;;;;;17.37;8.85;;;;;;;-3.63;68.90;101022.80;1717845;82;21134;-36
2020/12/06 06:09:07;;;;;;;23.95;9.80;;;;;;;-3.61;68.78;101014.13;1731257;82;21119;-36
2020/12/06 06:11:37;;;;;;;18.27;9.73;;;;;;;-3.58;68.60;101026.10;1718962;82;21251;-36
2020/12/06 06:16:45;;;;;;;16.55;9.13;;;;;;;-3.52;68.52;101024.69;1755942;79;22943;-36
2020/12/06 06:19:14;;;;;;;13.78;8.65;;;;;;;-3.53;68.47;101033.67;1725270;81;20998;-35
2020/12/06 06:21:43;;;;;;;18.57;9.03;;;;;;;-3.50;68.35;101033.75;1748703;80;21412;-35
2020/12/06 06:24:15;;;;;;;17.70;9.03;;;;;;;-3.47;68.26;101028.50;1741198;80;20948;-35
2020/12/06 06:26:45;;;;;;;17.98;9.75;;;;;;;-3.46;68.27;101032.27;1739501;80;21156;-35
2020/12/06 06:29:16;;;;;;;16.15;9.50;;;;;;;-3.44;68.28;101036.02;1746152;80;21063;-35
2020/12/06 06:31:48;;;;;;;18.02;10.00;;;;;;;-3.43;68.26;101037.10;1755294;80;21554;-35
2020/12/06 06:34:17;;;;;;;19.80;9.50;;;;;;;-3.48;68.35;101036.16;1696976;83;21588;-35
2020/12/06 06:36:46;;;;;;;16.25;9.43;;;;;;;-3.45;68.63;101035.73;1657539;85;21044;-35
2020/12/06 06:39:20;;;;;;;18.92;9.90;;;;;;;-3.42;68.69;101032.09;1678192;85;21180;-35
2020/12/06 06:42:08;;;;;;;15.25;9.15;;;;;;;-3.43;68.71;101041.08;1707379;82;21174;-35
2020/12/06 06:44:41;;;;;;;21.42;9.43;;;;;;;-3.39;68.56;101042.78;1705913;84;21108;-35
2020/12/06 06:47:14;;;;;;;16.48;9.15;;;;;;;-3.40;68.34;101047.27;1705650;84;21224;-35
2020/12/06 06:49:57;;;;;;;18.67;8.50;;;;;;;-3.43;68.52;101040.27;1703079;82;21183;-35
2020/12/06 06:52:27;;;;;;;19.50;8.88;;;;;;;-3.44;68.51;101043.46;1678516;84;21168;-35
2020/12/06 06:54:57;;;;;;;17.32;8.58;;;;;;;-3.44;68.51;101043.46;1678230;85;21463;-35
2020/12/06 06:57:31;;;;;;;32.15;10.00;;;;;;;-3.48;68.62;101040.95;1678759;84;21224;-36
2020/12/06 07:00:00;;;;;;;23.55;9.63;;;;;;;-3.42;68.62;101040.56;1688058;84;21402;-34
2020/12/06 07:02:42;;;;;;;17.90;8.40;;;;;;;-3.48;68.63;101048.90;1691878;84;21146;-35
2020/12/06 07:05:21;;;;;;;17.35;9.25;;;;;;;-3.40;68.64;101041.97;1681794;84;20980;-35
2020/12/06 07:07:53;;;;;;;22.15;9.20;;;;;;;-3.35;68.42;101043.43;1699053;83;21136;-35
2020/12/06 07:10:24;;;;;;;19.35;9.95;;;;;;;-3.35;68.74;101047.41;1676320;84;21175;-33
2020/12/06 07:12:58;;;;;;;16.70;8.93;;;;;;;-3.27;68.42;101047.58;1680898;84;26668;-35
2020/12/06 07:15:27;;;;;;;17.65;9.73;;;;;;;-3.21;68.49;101044.84;1668541;83;21736;-34
2020/12/06 07:17:57;;;;;;;17.50;9.00;;;;;;;-3.23;68.23;101049.55;1713640;81;21194;-34
2020/12/06 07:20:27;;;;;;;11.83;7.97;;;;;;;-3.16;68.00;101047.63;1718573;82;22104;-34
2020/12/06 07:22:56;;;;;;;17.32;9.40;;;;;;;-3.09;67.91;101056.27;1712719;82;21166;-34
2020/12/06 07:25:25;;;;;;;17.02;8.88;;;;;;;-3.04;67.93;101052.92;1721554;82;21429;-34
2020/12/06 07:27:53;;;;;;;16.40;9.03;;;;;;;-2.96;67.09;101049.96;1721336;82;21146;-34
2020/12/06 07:30:23;;;;;;;15.48;9.33;;;;;;;-2.90;66.73;101051.67;1712247;82;21187;-34
2020/12/06 07:32:52;;;;;;;16.35;8.80;;;;;;;-2.89;66.74;101048.50;1712093;83;21722;-35
2020/12/06 07:35:23;;;;;;;15.30;9.05;;;;;;;-2.82;66.83;101050.55;1712119;82;21239;-36
2020/12/06 07:37:56;;;;;;;14.30;7.80;;;;;;;-2.73;66.63;101059.78;1725295;82;21405;-34
2020/12/06 07:40:24;;;;;;;19.98;8.50;;;;;;;-2.62;66.69;101058.98;1741568;82;21630;-35
2020/12/06 07:42:53;;;;;;;16.60;8.35;;;;;;;-2.46;66.33;101068.88;1751735;81;21113;-35
2020/12/06 07:45:27;;;;;;;14.83;6.87;;;;;;;-2.36;65.14;101066.45;1670837;85;21675;-36
2020/12/06 07:47:55;;;;;;;16.82;9.25;;;;;;;-2.24;64.96;101056.64;1682304;85;21616;-34
2020/12/06 07:50:23;;;;;;;17.17;9.20;;;;;;;-2.11;64.86;101062.72;1679387;85;21430;-34
2020/12/06 07:52:52;;;;;;;16.30;8.63;;;;;;;-2.02;64.28;101053.34;1717884;82;21194;-34
2020/12/06 07:55:20;;;;;;;16.27;9.10;;;;;;;-1.92;64.46;101062.33;1712780;82;21171;-34
2020/12/06 07:57:52;;;;;;;17.10;8.93;;;;;;;-1.80;64.08;101063.13;1721981;82;21167;-34
2020/12/06 08:00:24;;;;;;;16.23;8.80;;;;;;;-1.68;62.97;101069.71;1741557;82;21123;-34
2020/12/06 08:02:59;;;;;;;17.80;8.80;;;;;;;-1.52;62.44;101076.12;1739286;82;21464;-34
2020/12/06 08:05:31;;;;;;;14.68;8.50;;;;;;;-1.40;62.03;101073.69;1719797;82;21107;-34
2020/12/06 08:08:07;;;;;;;15.10;9.00;;;;;;;-1.33;60.24;101081.53;1712121;82;21068;-34
2020/12/06 08:10:35;;;;;;;15.90;8.35;;;;;;;-1.25;60.78;101074.48;1726587;82;21578;-34
2020/12/06 08:13:07;;;;;;;15.88;9.15;;;;;;;-1.14;60.80;101080.80;1738564;81;21180;-35
2020/12/06 08:15:35;;;;;;;17.20;8.53;;;;;;;-1.09;59.52;101079.55;1696741;82;23551;-34
2020/12/06 08:18:13;;;;;;;16.45;8.63;;;;;;;-1.00;59.71;101081.58;1744875;82;21129;-34
2020/12/06 08:20:56;;;;;;;16.73;10.30;;;;;;;-0.85;59.69;101074.37;1821579;76;28019;-34
2020/12/06 08:23:36;;;;;;;16.00;9.60;;;;;;;-0.56;59.16;101069.23;1781271;79;20981;-34
2020/12/06 08:26:05;;;;;;;15.72;9.83;;;;;;;-0.32;57.24;101066.36;1778365;79;21360;-34
2020/12/06 08:28:33;;;;;;;19.35;9.05;;;;;;;-0.48;57.57;101065.33;1792401;79;20980;-34
2020/12/06 08:31:21;;;;;;;14.87;8.83;;;;;;;-0.47;58.00;101069.61;1784907;79;21399;-35
2020/12/06 08:33:50;;;;;;;19.42;9.60;;;;;;;-0.46;57.59;101067.23;1767750;79;21007;-34
2020/12/06 08:36:24;;;;;;;15.32;8.13;;;;;;;-0.41;57.91;101065.17;1740564;82;21012;-35
2020/12/06 08:38:54;;;;;;;15.45;9.18;;;;;;;-0.33;57.42;101065.55;1713928;82;21464;-34
2020/12/06 08:41:25;;;;;;;14.40;8.75;;;;;;;-0.28;57.59;101068.81;1769855;81;21042;-34
2020/12/06 08:44:03;;;;;;;17.35;9.13;;;;;;;-0.22;56.93;101055.31;1726088;82;21036;-34
2020/12/06 08:46:32;;;;;;;16.75;8.80;;;;;;;-0.15;57.00;101047.15;1738374;82;21008;-34
2020/12/06 08:49:02;;;;;;;14.45;8.48;;;;;;;-0.08;56.59;101046.42;1748757;81;21166;-34
2020/12/06 08:51:37;;;;;;;15.65;9.25;;;;;;;-0.02;56.06;101046.77;1748905;81;21335;-34
2020/12/06 08:54:09;;;;;;;17.05;9.25;;;;;;;0.04;56.52;101052.98;1730664;80;21182;-34
2020/12/06 08:56:39;;;;;;;17.50;9.10;;;;;;;0.14;56.06;101047.77;1720255;82;20969;-34
2020/12/06 08:59:17;;;;;;;17.20;8.88;;;;;;;0.19;55.97;101044.63;1739486;82;21157;-35
2020/12/06 09:01:54;;;;;;;17.98;8.93;;;;;;;0.32;56.37;101036.77;1714584;82;21166;-34
2020/12/06 09:04:23;;;;;;;20.57;9.78;;;;;;;0.48;56.06;101040.41;1714139;82;21202;-34
2020/12/06 09:06:53;;;;;;;15.05;9.13;;;;;;;0.63;54.20;101040.00;1739396;82;21153;-34
2020/12/06 09:09:21;;;;;;;;;;;;;;;0.72;54.03;101045.70;1742345;81;21112;-34
2020/12/06 09:11:54;;;;;;;17.55;8.75;;;;;;;0.77;54.41;101043.09;1719773;82;20256;-35
2020/12/06 09:14:27;;;;;;;14.53;8.50;;;;;;;0.81;54.07;101044.19;1723897;81;21230;-34
2020/12/06 09:16:54;;;;;;;;;;;;;;;0.82;53.00;101050.59;1726472;83;21426;-34
2020/12/06 09:19:22;;;;;;;15.90;8.00;;;;;;;0.87;53.67;101046.63;1722889;81;20290;-34
2020/12/06 09:21:53;;;;;;;17.25;8.53;;;;;;;0.98;53.68;101044.85;1720531;82;21184;-34
2020/12/06 09:24:21;;;;;;;;;;;;;;;1.18;53.86;101039.67;1745653;82;21015;-35
2020/12/06 09:26:49;;;;;;;15.75;8.40;;;;;;;1.36;52.12;101044.32;1743494;82;20177;-34
2020/12/06 09:29:17;;;;;;;18.17;8.20;;;;;;;1.30;52.46;101033.63;1732762;82;21201;-34
2020/12/06 09:31:45;;;;;;;14.45;9.03;;;;;;;1.37;51.59;101032.58;1713411;83;21632;-35
2020/12/06 09:34:15;;;;;;;15.15;8.20;;;;;;;1.39;51.75;101027.80;1723979;82;21154;-35
2020/12/06 09:36:43;;;;;;;18.20;9.30;;;;;;;1.38;52.01;101032.86;1718972;82;21597;-35
2020/12/06 09:39:15;;;;;;;13.20;8.03;;;;;;;1.49;51.71;101024.66;1713313;83;21150;-35
2020/12/06 09:41:47;;;;;;;18.35;8.93;;;;;;;1.61;52.17;101016.42;1724684;82;21374;-35
2020/12/06 09:44:15;;;;;;;14.83;8.98;;;;;;;1.73;52.17;101021.04;1734583;80;21138;-36
2020/12/06 09:46:44;;;;;;;16.12;7.65;;;;;;;1.79;51.26;101013.85;1727153;82;21182;-36
2020/12/06 09:49:12;;;;;;;14.55;8.60;;;;;;;1.70;50.58;101006.84;1722291;82;21043;-35
2020/12/06 09:51:43;;;;;;;16.60;8.58;;;;;;;1.65;51.33;101015.64;1730616;82;21158;-34
2020/12/06 09:54:12;;;;;;;14.53;8.15;;;;;;;1.72;50.80;101013.55;1713318;83;23617;-34
2020/12/06 09:56:42;;;;;;;12.85;8.00;;;;;;;1.73;49.80;101000.98;1718765;82;21185;-34
2020/12/06 09:59:11;;;;;;;18.62;8.38;;;;;;;1.78;50.56;101009.03;1714758;82;21139;-35
2020/12/06 10:01:40;;;;;;;14.63;7.90;;;;;;;1.87;49.84;101000.78;1709769;83;21178;-34
2020/12/06 10:04:08;;;;;;;14.40;8.70;;;;;;;1.91;50.23;101002.39;1751180;81;21162;-34
2020/12/06 10:06:37;;;;;;;16.45;8.25;;;;;;;1.98;49.68;101001.62;1733935;81;21257;-34
2020/12/06 10:09:06;;;;;;;14.58;7.90;;;;;;;2.02;50.04;100997.36;1735598;81;21186;-34
2020/12/06 10:11:35;;;;;;;16.93;7.83;;;;;;;2.09;48.61;100992.02;1724644;82;21185;-35
2020/12/06 10:14:03;;;;;;;18.23;8.28;;;;;;;2.15;49.30;100994.17;1793874;79;20992;-36
2020/12/06 10:16:33;;;;;;;14.03;7.72;;;;;;;2.23;49.87;100990.98;1774655;79;21184;-35
2020/12/06 10:19:03;;;;;;;12.35;7.47;;;;;;;2.37;49.24;100992.64;1720288;83;22163;-35
2020/12/06 10:21:31;;;;;;;16.40;7.92;;;;;;;2.45;49.23;100979.53;1706918;82;21167;-35
2020/12/06 10:24:00;;;;;;;12.93;7.05;;;;;;;2.50;49.17;100984.08;1773842;79;21021;-35
2020/12/06 10:26:28;;;;;;;14.03;7.37;;;;;;;2.58;48.50;100978.19;1775755;79;21040;-35
2020/12/06 10:28:59;;;;;;;20.48;8.55;;;;;;;2.73;48.36;100986.77;1795945;79;22056;-35
2020/12/06 10:31:27;;;;;;;;;;;;;;;2.90;47.70;100977.41;1783047;79;21429;-37
2020/12/06 10:33:55;;;;;;;14.23;7.75;;;;;;;2.90;47.12;100978.75;1814218;78;20211;-35
2020/12/06 10:36:24;;;;;;;16.00;7.17;;;;;;;2.89;48.27;100976.33;1737326;81;21062;-34
2020/12/06 10:38:53;;;;;;;15.75;8.08;;;;;;;2.99;47.50;100966.41;1703043;84;21183;-35
2020/12/06 10:41:22;;;;;;;13.53;8.17;;;;;;;3.11;46.37;100969.32;1765407;81;21641;-35
2020/12/06 10:43:50;;;;;;;16.15;7.40;;;;;;;3.08;46.48;100961.84;1771614;79;21353;-34
2020/12/06 10:46:19;;;;;;;15.60;7.60;;;;;;;3.00;47.17;100959.95;1795871;78;21119;-35
2020/12/06 10:48:47;;;;;;;17.62;7.70;;;;;;;3.04;47.59;100961.58;1777451;79;21558;-35
2020/12/06 10:51:15;;;;;;;14.80;7.37;;;;;;;3.11;46.92;100963.44;1775718;79;21123;-35
2020/12/06 10:53:44;;;;;;;12.88;7.15;;;;;;;2.82;46.99;100912.31;1796536;79;21147;-35
2020/12/06 10:56:12;;;;;;;12.95;7.62;;;;;;;3.25;47.69;100964.47;1778261;78;21245;-35
2020/12/06 10:58:41;;;;;;;14.25;7.28;;;;;;;3.44;46.30;100956.65;1775418;79;21159;-35
2020/12/06 11:01:11;;;;;;;15.60;7.90;;;;;;;3.48;45.45;100956.39;1786570;78;20983;-35
2020/12/06 11:03:42;;;;;;;15.60;7.30;;;;;;;3.40;45.44;100951.57;1730268;81;22177;-35
2020/12/06 11:06:13;;;;;;;12.78;7.00;;;;;;;3.31;45.90;100955.89;1712864;83;21158;-35
2020/12/06 11:08:42;;;;;;;14.35;7.30;;;;;;;3.26;46.37;100955.90;1721947;82;21220;-35
2020/12/06 11:11:14;;;;;;;11.80;6.92;;;;;;;3.44;46.47;100950.75;1738007;81;21648;-35
2020/12/06 11:13:43;;;;;;;13.38;6.87;;;;;;;3.61;45.48;100941.05;1725617;82;21868;-35
2020/12/06 11:16:17;;;;;;;16.60;7.53;;;;;;;3.69;45.03;100948.52;1767678;79;21137;-36
2020/12/06 11:18:46;;;;;;;13.50;7.58;;;;;;;3.78;44.69;100954.10;1774060;78;21191;-36
2020/12/06 11:21:15;;;;;;;14.70;7.67;;;;;;;3.67;44.25;100945.32;1774556;79;21270;-36
2020/12/06 11:23:44;;;;;;;14.20;6.20;;;;;;;3.64;44.32;100943.70;1784001;79;20996;-36
2020/12/06 11:26:14;;;;;;;12.03;6.87;;;;;;;3.54;44.05;100939.72;1794544;79;21028;-36
2020/12/06 11:28:45;;;;;;;14.60;7.33;;;;;;;3.38;43.47;100943.02;1783238;79;21290;-36
2020/12/06 11:31:13;;;;;;;11.57;6.20;;;;;;;3.33;44.32;100955.09;1794065;79;21057;-36